Time;durP1;ratioP1;P1;durP2;ratioP2;P2;SDS_P1;SDS_P2;PMS_P1;PMS_P2;Temp;Humidity;BMP_temperature;BMP_pressure;BME280_temperature;BME280_humidity;BME280_pressure;Samples;Min_cycle;Max_cycle;Signal;HPM_P1;HPM_P2
2021/08/26 00:00:29;;;;;;;19.92;8.68;;;;;;;14.76;79.53;99537.72;5050862;28;20037;-53
2021/08/26 00:05:50;;;;;;;24.08;8.88;;;;;;;14.65;79.25;99508.38;5048723;28;20080;-55
2021/08/26 00:08:17;;;;;;;18.35;6.72;;;;;;;14.72;78.47;99509.81;5050210;28;20043;-55
2021/08/26 00:10:43;;;;;;;22.70;8.95;;;;;;;14.71;79.50;99513.34;5050575;28;20044;-56
2021/08/26 00:13:11;;;;;;;19.10;7.47;;;;;;;14.72;79.48;99512.44;5032035;28;20049;-59
2021/08/26 00:15:37;;;;;;;18.35;8.20;;;;;;;14.63;80.03;99505.81;5033613;28;20067;-54
2021/08/26 00:18:04;;;;;;;12.73;6.75;;;;;;;14.67;80.08;99496.00;5047956;28;20037;-56
2021/08/26 00:20:29;;;;;;;12.43;5.93;;;;;;;14.57;79.75;99502.59;5049042;28;20586;-54
2021/08/26 00:22:55;;;;;;;14.20;6.55;;;;;;;14.61;80.05;99512.06;5050185;28;20053;-55
2021/08/26 00:25:21;;;;;;;14.55;6.97;;;;;;;14.55;80.24;99501.81;5033775;28;20041;-59
2021/08/26 00:27:47;;;;;;;15.23;6.72;;;;;;;14.54;80.33;99500.09;5049169;28;20049;-56
2021/08/26 00:30:12;;;;;;;24.60;6.72;;;;;;;14.53;80.19;99499.25;5051703;28;20037;-59
2021/08/26 00:32:38;;;;;;;19.38;6.50;;;;;;;14.50;80.24;99494.13;5053985;28;20087;-53
2021/08/26 00:35:04;;;;;;;28.40;7.15;;;;;;;14.55;80.10;99521.09;5053082;28;20109;-55
2021/08/26 00:37:30;;;;;;;19.83;7.30;;;;;;;14.50;80.25;99504.66;5052964;28;20080;-53
2021/08/26 00:39:56;;;;;;;13.95;6.60;;;;;;;14.61;80.04;99514.69;5053602;28;20040;-55
2021/08/26 00:42:23;;;;;;;21.13;6.93;;;;;;;14.62;80.10;99508.50;5052556;28;20086;-55
2021/08/26 00:44:49;;;;;;;18.05;6.47;;;;;;;14.57;80.33;99516.59;5035635;28;20135;-56
2021/08/26 00:47:14;;;;;;;20.15;6.60;;;;;;;14.57;80.46;99510.50;5019384;28;20490;-57
2021/08/26 00:49:40;;;;;;;23.35;6.93;;;;;;;14.45;79.90;99489.97;5054044;28;20071;-51
2021/08/26 00:52:12;;;;;;;18.38;6.50;;;;;;;14.48;80.42;99484.56;5019804;28;20051;-55
2021/08/26 00:54:38;;;;;;;11.60;6.28;;;;;;;14.46;80.53;99486.44;5052706;28;20478;-56
2021/08/26 00:57:04;;;;;;;6.85;5.22;;;;;;;14.53;80.21;99501.03;5052205;28;20053;-56
2021/08/26 00:59:31;;;;;;;16.63;5.60;;;;;;;14.54;80.42;99500.09;5053186;28;20049;-54
2021/08/26 01:02:26;;;;;;;21.15;6.05;;;;;;;14.50;80.74;99498.53;5034938;28;20124;-55
2021/08/26 01:04:57;;;;;;;16.27;5.88;;;;;;;14.45;80.45;99484.72;5016635;28;20581;-57
2021/08/26 01:07:32;;;;;;;11.60;6.07;;;;;;;14.53;80.27;99495.75;5052340;28;20048;-56
2021/08/26 01:10:05;;;;;;;24.08;6.95;;;;;;;14.39;80.75;99475.28;5051936;28;20060;-54
2021/08/26 01:12:32;;;;;;;13.82;6.78;;;;;;;14.50;81.00;99493.25;5034595;28;20095;-57
2021/08/26 01:14:58;;;;;;;17.60;6.88;;;;;;;14.50;80.82;99495.88;5035728;28;20048;-56
2021/08/26 01:17:29;;;;;;;24.58;7.05;;;;;;;14.49;81.16;99495.03;5052496;28;20041;-56
2021/08/26 01:20:00;;;;;;;19.05;6.43;;;;;;;14.38;81.35;99473.56;5052200;28;20080;-56
2021/08/26 01:22:36;;;;;;;26.65;6.65;;;;;;;14.50;80.87;99496.75;5053244;28;20041;-58
2021/08/26 01:25:05;;;;;;;20.10;7.10;;;;;;;14.50;81.28;99493.25;5053876;28;20075;-58
2021/08/26 01:27:43;;;;;;;27.15;7.30;;;;;;;14.52;81.87;99489.63;5052553;28;20450;-53
2021/08/26 01:30:15;;;;;;;20.55;6.32;;;;;;;14.51;81.51;99484.44;5052580;28;20089;-56
2021/08/26 01:32:42;;;;;;;10.93;6.35;;;;;;;14.49;81.47;99481.03;5051765;28;20090;-50
2021/08/26 01:35:09;;;;;;;27.55;7.65;;;;;;;14.44;82.05;99460.19;5018088;28;20398;-53
2021/08/26 01:37:40;;;;;;;15.10;6.72;;;;;;;14.51;81.61;99477.41;5050796;28;20407;-51
2021/08/26 01:40:07;;;;;;;16.52;6.80;;;;;;;14.55;81.10;99475.50;5034235;28;20044;-54
2021/08/26 01:42:39;;;;;;;9.93;5.72;;;;;;;14.56;81.12;99477.19;5052989;28;20049;-54
2021/08/26 01:45:06;;;;;;;8.63;5.78;;;;;;;14.55;81.10;99472.84;5052831;28;20478;-56
2021/08/26 01:47:32;;;;;;;15.35;6.38;;;;;;;14.47;81.68;99456.56;5050204;28;20414;-51
2021/08/26 01:49:59;;;;;;;17.88;6.75;;;;;;;14.56;81.31;99456.13;5051985;28;20053;-56
2021/08/26 01:52:26;;;;;;;8.40;6.43;;;;;;;14.55;81.23;99459.69;5051715;28;20042;-52
2021/08/26 01:54:58;;;;;;;11.77;6.30;;;;;;;14.47;81.19;99460.03;5033241;28;20048;-53
2021/08/26 01:57:28;;;;;;;9.70;5.50;;;;;;;14.57;80.79;99468.38;5017425;28;20127;-51
2021/08/26 01:59:55;;;;;;;17.08;6.68;;;;;;;14.57;80.68;99463.97;5034025;28;20048;-49
2021/08/26 02:02:21;;;;;;;9.05;6.00;;;;;;;14.48;81.35;99458.25;5032940;28;20041;-52
2021/08/26 02:04:47;;;;;;;11.82;5.72;;;;;;;14.51;80.81;99456.34;5052439;28;20044;-51
2021/08/26 02:07:13;;;;;;;10.10;5.80;;;;;;;14.58;80.77;99467.44;5049887;28;20040;-50
2021/08/26 02:09:39;;;;;;;9.80;6.35;;;;;;;14.59;80.60;99461.25;5051566;28;20049;-49
2021/08/26 02:12:05;;;;;;;10.05;5.22;;;;;;;14.57;80.38;99463.13;5052089;28;20048;-52
2021/08/26 02:14:31;;;;;;;9.93;5.28;;;;;;;14.61;80.17;99464.69;5050019;28;20041;-52
2021/08/26 02:16:58;;;;;;;10.75;5.25;;;;;;;14.57;79.96;99463.97;5050712;28;20041;-56
2021/08/26 02:19:24;;;;;;;8.73;5.63;;;;;;;14.64;80.17;99469.81;5050413;28;20575;-61
2021/08/26 02:21:49;;;;;;;9.15;5.78;;;;;;;14.65;80.01;99461.00;5050775;28;20041;-55
2021/08/26 02:24:15;;;;;;;7.97;5.90;;;;;;;14.69;79.66;99470.44;5051676;28;20048;-50
2021/08/26 02:26:41;;;;;;;15.63;6.82;;;;;;;14.62;79.40;99461.13;5034293;28;20079;-51
2021/08/26 02:29:07;;;;;;;17.17;6.30;;;;;;;14.66;79.32;99465.31;5051361;28;20044;-54
2021/08/26 02:31:32;;;;;;;9.43;5.95;;;;;;;14.81;79.28;99492.75;5033336;28;20048;-51
2021/08/26 02:33:58;;;;;;;16.25;5.32;;;;;;;14.87;78.97;99490.72;5051392;28;20345;-53
2021/08/26 02:36:24;;;;;;;8.90;5.45;;;;;;;14.88;78.89;99495.06;5001710;28;20036;-57
2021/08/26 02:38:50;;;;;;;8.85;5.97;;;;;;;14.80;78.79;99476.09;5034094;28;20056;-54
2021/08/26 02:41:18;;;;;;;18.20;5.82;;;;;;;14.88;79.03;99484.53;5032613;28;20410;-54
2021/08/26 02:43:43;;;;;;;13.20;5.68;;;;;;;14.88;78.77;99495.06;5051621;28;20110;-53
2021/08/26 02:46:09;;;;;;;11.85;5.72;;;;;;;14.75;78.79;99472.81;5049152;28;20121;-53
2021/08/26 02:48:35;;;;;;;14.77;5.88;;;;;;;14.83;79.02;99497.00;5051258;28;20045;-55
2021/08/26 02:51:01;;;;;;;9.20;6.03;;;;;;;14.60;79.22;99462.97;5033638;28;20627;-55
2021/08/26 02:53:27;;;;;;;15.20;6.57;;;;;;;14.76;79.31;99490.31;5050587;28;20040;-57
2021/08/26 02:55:53;;;;;;;13.70;6.43;;;;;;;14.76;79.68;99484.19;5033362;28;20052;-54
2021/08/26 02:58:19;;;;;;;8.90;6.45;;;;;;;14.72;79.86;99487.88;5051986;28;20052;-55
2021/08/26 03:00:45;;;;;;;9.10;5.78;;;;;;;14.65;79.64;99476.78;5051252;28;20072;-53
2021/08/26 03:03:11;;;;;;;12.15;5.95;;;;;;;14.60;79.67;99468.25;5050403;28;20427;-60
2021/08/26 03:05:37;;;;;;;10.68;6.50;;;;;;;14.70;79.53;99484.47;5049598;28;20118;-49
2021/08/26 03:08:02;;;;;;;11.48;6.07;;;;;;;14.62;79.72;99471.66;5051073;28;20127;-58
2021/08/26 03:10:28;;;;;;;8.10;6.00;;;;;;;14.67;79.17;99468.81;5051548;28;20051;-50
2021/08/26 03:12:55;;;;;;;9.10;5.93;;;;;;;14.81;79.34;99493.59;5050097;28;20044;-57
2021/08/26 03:15:21;;;;;;;10.43;6.47;;;;;;;14.80;78.91;99494.50;5050633;28;20537;-54
2021/08/26 03:17:47;;;;;;;13.43;6.43;;;;;;;14.70;78.54;99461.63;5050537;28;20040;-55
2021/08/26 03:20:13;;;;;;;11.85;6.57;;;;;;;14.83;79.01;99480.34;5032855;28;20502;-55
2021/08/26 03:22:39;;;;;;;11.48;5.57;;;;;;;14.88;78.99;99483.66;5050350;28;20048;-52
2021/08/26 03:25:06;;;;;;;16.02;6.10;;;;;;;14.87;78.60;99492.50;5016716;28;20399;-53
2021/08/26 03:27:31;;;;;;;13.45;5.88;;;;;;;14.91;78.63;99496.69;5050479;28;20136;-52
2021/08/26 03:29:57;;;;;;;12.02;5.65;;;;;;;14.86;78.55;99488.13;5033879;28;20399;-52
2021/08/26 03:32:24;;;;;;;10.75;6.00;;;;;;;14.85;79.13;99489.03;5049185;28;20064;-56
2021/08/26 03:34:50;;;;;;;13.80;5.90;;;;;;;14.83;79.31;99493.53;5050109;28;20090;-56
2021/08/26 03:37:16;;;;;;;14.18;6.20;;;;;;;14.84;79.52;99500.50;5048262;28;20091;-55
2021/08/26 03:39:42;;;;;;;11.38;5.68;;;;;;;14.76;79.43;99503.47;5048624;28;20048;-57
2021/08/26 03:42:08;;;;;;;6.93;5.20;;;;;;;14.84;79.00;99503.13;5049165;28;20044;-53
2021/08/26 03:44:34;;;;;;;8.73;6.15;;;;;;;14.89;79.11;99498.53;5049783;28;20049;-56
2021/08/26 03:47:00;;;;;;;9.60;6.03;;;;;;;14.91;78.83;99494.06;5049965;28;20135;-54
2021/08/26 03:49:28;;;;;;;11.55;5.78;;;;;;;14.77;78.78;99486.75;5031940;28;20041;-55
2021/08/26 03:51:55;;;;;;;9.65;5.43;;;;;;;14.93;78.29;99500.97;5049787;28;20405;-54
2021/08/26 03:54:21;;;;;;;9.70;5.45;;;;;;;14.96;78.54;99507.00;5051400;28;20175;-54
2021/08/26 03:56:46;;;;;;;7.82;5.72;;;;;;;14.94;78.54;99497.41;5049783;28;20143;-51
2021/08/26 03:59:13;;;;;;;8.38;5.70;;;;;;;14.96;78.15;99491.22;5050507;28;20041;-52
2021/08/26 04:01:39;;;;;;;15.48;6.05;;;;;;;15.10;78.24;99504.59;5016876;28;20045;-54
2021/08/26 04:04:05;;;;;;;7.38;5.38;;;;;;;15.02;78.25;99491.78;5049828;28;20273;-50
2021/08/26 04:06:30;;;;;;;9.57;5.20;;;;;;;15.09;77.70;99497.63;5053166;28;20075;-52
2021/08/26 04:08:56;;;;;;;10.55;5.93;;;;;;;15.25;77.49;99510.00;5019017;28;20541;-51
2021/08/26 04:11:22;;;;;;;8.70;6.50;;;;;;;15.29;76.93;99520.41;5036638;28;20053;-57
2021/08/26 04:13:48;;;;;;;11.13;6.00;;;;;;;15.30;77.29;99507.16;5053829;28;20044;-56
2021/08/26 04:16:15;;;;;;;8.60;5.70;;;;;;;15.32;77.63;99515.84;5036328;28;20503;-57
2021/08/26 04:18:41;;;;;;;7.15;5.60;;;;;;;15.41;76.84;99518.03;5051637;28;20137;-56
2021/08/26 04:21:06;;;;;;;10.25;5.63;;;;;;;15.43;77.04;99504.78;5053570;28;20076;-59
2021/08/26 04:23:32;;;;;;;11.38;6.18;;;;;;;15.51;76.84;99515.81;5035380;28;20417;-58
2021/08/26 04:25:58;;;;;;;11.38;6.32;;;;;;;15.58;76.65;99517.25;5051535;28;20041;-54
2021/08/26 04:28:24;;;;;;;13.07;6.10;;;;;;;15.64;76.14;99506.44;5052184;28;20049;-57
2021/08/26 04:30:49;;;;;;;11.40;6.10;;;;;;;15.69;76.44;99512.34;5052392;28;20048;-56
2021/08/26 04:33:15;;;;;;;13.88;6.45;;;;;;;15.75;76.06;99512.06;5051829;28;20184;-55
2021/08/26 04:35:41;;;;;;;9.20;5.93;;;;;;;15.78;76.47;99516.31;5050675;28;20102;-52
2021/08/26 04:38:06;;;;;;;11.68;5.70;;;;;;;15.73;76.17;99510.41;5051186;28;20159;-57
2021/08/26 04:40:32;;;;;;;9.45;5.80;;;;;;;15.69;75.99;99504.44;5054008;28;20140;-55
2021/08/26 04:42:58;;;;;;;9.77;5.82;;;;;;;15.74;75.28;99485.75;5054062;28;20040;-57
2021/08/26 04:45:24;;;;;;;11.18;5.93;;;;;;;16.03;75.34;99506.25;5053706;28;20045;-57
2021/08/26 04:47:49;;;;;;;15.10;6.20;;;;;;;16.11;74.57;99513.78;5035076;28;20066;-55
2021/08/26 04:50:15;;;;;;;9.55;5.93;;;;;;;16.13;74.67;99499.59;5051386;28;20139;-55
2021/08/26 04:52:41;;;;;;;14.80;5.50;;;;;;;16.08;75.04;99501.59;5052125;28;20528;-57
2021/08/26 04:55:07;;;;;;;7.10;5.57;;;;;;;16.26;74.42;99505.09;5051225;28;20048;-58
2021/08/26 04:57:33;;;;;;;11.05;5.90;;;;;;;16.35;73.58;99509.91;5050762;28;20040;-54
2021/08/26 04:59:59;;;;;;;9.95;5.75;;;;;;;16.67;73.17;99517.97;5049321;28;20045;-56
2021/08/26 05:02:25;;;;;;;8.90;6.28;;;;;;;17.01;72.04;99520.53;5032404;28;20045;-56
2021/08/26 05:04:50;;;;;;;13.73;5.78;;;;;;;17.02;70.65;99521.38;5050731;28;20094;-58
2021/08/26 05:07:16;;;;;;;8.73;5.40;;;;;;;17.36;70.15;99526.56;5051086;28;20033;-56
2021/08/26 05:09:42;;;;;;;8.82;5.72;;;;;;;17.16;70.72;99518.88;5032664;28;20093;-55
2021/08/26 05:12:08;;;;;;;8.80;5.60;;;;;;;17.22;70.71;99502.66;5049682;28;20044;-56
2021/08/26 05:14:34;;;;;;;9.05;5.43;;;;;;;17.27;71.20;99527.06;5049860;28;20041;-56
2021/08/26 05:17:02;;;;;;;8.32;5.32;;;;;;;17.35;70.98;99524.84;5050397;28;20169;-57
2021/08/26 05:19:27;;;;;;;19.88;6.05;;;;;;;17.17;70.36;99480.94;5051413;28;20247;-55
2021/08/26 05:21:53;;;;;;;9.25;5.10;;;;;;;17.31;70.05;99527.75;5051306;28;20048;-57
2021/08/26 05:24:19;;;;;;;6.25;5.18;;;;;;;17.19;70.69;99526.63;5032195;28;20045;-53
2021/08/26 05:26:45;;;;;;;16.02;5.70;;;;;;;17.18;71.03;99538.13;5049540;28;20068;-53
2021/08/26 05:29:11;;;;;;;6.18;5.45;;;;;;;17.01;71.64;99525.81;5050128;28;20508;-57
2021/08/26 05:31:37;;;;;;;25.60;5.97;;;;;;;16.92;72.20;99541.31;5049920;28;20049;-58
2021/08/26 05:34:03;;;;;;;8.45;5.30;;;;;;;17.09;71.99;99544.78;5047105;28;20164;-54
2021/08/26 05:36:28;;;;;;;11.05;5.82;;;;;;;17.24;71.24;99540.44;5049492;28;20049;-53
2021/08/26 05:38:54;;;;;;;8.90;5.47;;;;;;;17.25;71.45;99543.94;5049658;28;20049;-58
2021/08/26 05:41:20;;;;;;;11.27;5.50;;;;;;;17.07;71.78;99524.63;5050110;28;20596;-58
2021/08/26 05:43:46;;;;;;;11.77;5.55;;;;;;;17.22;71.54;99534.38;5048800;28;20033;-54
2021/08/26 05:46:12;;;;;;;8.60;5.03;;;;;;;17.18;70.93;99522.28;5049256;28;20049;-52
2021/08/26 05:48:38;;;;;;;14.57;5.45;;;;;;;17.59;70.49;99545.56;5050184;28;20123;-53
2021/08/26 05:51:04;;;;;;;9.73;5.30;;;;;;;17.64;69.49;99515.28;5050548;28;20045;-58
2021/08/26 05:53:30;;;;;;;8.95;5.30;;;;;;;17.59;69.81;99537.63;5015389;28;20444;-57
2021/08/26 05:55:55;;;;;;;13.60;5.63;;;;;;;17.97;69.20;99536.34;5048779;28;20512;-52
2021/08/26 05:58:21;;;;;;;15.15;6.05;;;;;;;18.56;67.64;99542.56;5049934;28;20041;-54
2021/08/26 06:00:48;;;;;;;9.90;5.40;;;;;;;18.76;66.51;99543.22;5047787;28;20159;-56
2021/08/26 06:03:15;;;;;;;10.32;5.43;;;;;;;18.78;66.31;99544.81;5049662;28;20490;-57
2021/08/26 06:05:43;;;;;;;11.10;5.00;;;;;;;19.31;64.50;99544.13;5008461;28;20380;-54
2021/08/26 06:08:09;;;;;;;13.52;5.47;;;;;;;19.59;63.10;99547.75;4989351;28;20063;-53
2021/08/26 06:10:36;;;;;;;5.50;4.40;;;;;;;19.53;63.51;99533.06;5029412;28;20373;-54
2021/08/26 06:13:02;;;;;;;8.30;5.18;;;;;;;19.52;63.11;99549.06;5048445;28;20135;-60
2021/08/26 06:15:28;;;;;;;9.50;4.78;;;;;;;19.35;63.90;99556.28;5046437;28;20569;-55
2021/08/26 06:17:54;;;;;;;7.90;4.57;;;;;;;19.38;63.55;99547.28;5046950;28;20051;-54
2021/08/26 06:20:20;;;;;;;13.75;4.88;;;;;;;19.51;63.27;99561.47;5048131;28;20383;-58
2021/08/26 06:22:46;;;;;;;11.02;5.47;;;;;;;19.45;63.32;99543.28;5048696;28;20498;-53
2021/08/26 06:25:13;;;;;;;10.07;5.25;;;;;;;19.80;61.91;99554.31;5014076;28;20041;-58
2021/08/26 06:27:40;;;;;;;9.30;5.75;;;;;;;21.49;57.55;99560.50;5031210;28;20048;-59
2021/08/26 06:30:08;;;;;;;8.73;4.55;;;;;;;21.18;57.60;99554.69;5048883;28;20064;-54
2021/08/26 06:32:34;;;;;;;11.35;4.90;;;;;;;20.79;58.35;99555.63;5016220;28;20051;-57
2021/08/26 06:35:02;;;;;;;11.13;5.20;;;;;;;20.47;60.11;99554.34;5031617;28;20041;-53
2021/08/26 06:37:28;;;;;;;9.85;4.85;;;;;;;20.79;59.31;99547.66;5016266;28;20057;-56
2021/08/26 06:39:54;;;;;;;9.18;4.72;;;;;;;20.75;58.76;99561.28;5032348;28;20045;-56
2021/08/26 06:42:19;;;;;;;9.15;4.65;;;;;;;20.17;60.40;99550.13;5047685;28;20131;-55
2021/08/26 06:44:45;;;;;;;8.40;4.90;;;;;;;19.86;62.08;99575.16;5049482;28;20456;-52
2021/08/26 06:47:11;;;;;;;9.52;5.13;;;;;;;19.48;63.46;99572.28;5047523;28;20045;-57
2021/08/26 06:49:37;;;;;;;7.57;4.85;;;;;;;19.25;64.49;99568.41;5031110;28;20044;-57
2021/08/26 06:52:04;;;;;;;14.40;5.40;;;;;;;19.12;64.75;99577.22;5016509;28;20067;-55
2021/08/26 06:54:31;;;;;;;10.98;5.30;;;;;;;18.90;65.38;99572.38;5049865;28;20603;-57
2021/08/26 06:56:56;;;;;;;11.25;5.38;;;;;;;19.19;64.62;99570.56;5049894;28;20517;-57
2021/08/26 06:59:22;;;;;;;16.08;7.60;;;;;;;20.26;61.36;99581.38;5050737;28;20044;-55
2021/08/26 07:01:48;;;;;;;8.45;5.65;;;;;;;22.63;55.37;99573.34;5031732;28;20346;-55
2021/08/26 07:04:14;;;;;;;9.65;4.47;;;;;;;22.68;53.10;99573.00;5031414;28;20033;-63
2021/08/26 07:06:40;;;;;;;13.30;4.53;;;;;;;22.50;54.22;99569.91;5030697;28;20045;-59
2021/08/26 07:09:06;;;;;;;14.52;4.88;;;;;;;22.28;54.72;99568.00;5029884;28;20506;-58
2021/08/26 07:11:31;;;;;;;9.48;5.07;;;;;;;22.09;55.29;99573.00;5047729;28;20522;-56
2021/08/26 07:13:57;;;;;;;9.23;4.90;;;;;;;21.25;57.71;99568.44;5031409;28;20102;-52
2021/08/26 07:16:23;;;;;;;12.50;5.35;;;;;;;21.01;58.92;99580.78;5049303;28;20041;-56
2021/08/26 07:18:49;;;;;;;10.85;6.13;;;;;;;21.12;58.88;99573.75;5049421;28;20082;-53
2021/08/26 07:21:15;;;;;;;11.55;5.78;;;;;;;21.53;57.22;99585.94;5048915;28;20090;-55
2021/08/26 07:23:40;;;;;;;13.75;6.07;;;;;;;21.63;57.59;99589.66;5049742;28;20151;-56
2021/08/26 07:26:06;;;;;;;9.20;5.85;;;;;;;23.82;51.24;99592.53;5049075;28;20156;-56
2021/08/26 07:28:32;;;;;;;10.65;6.03;;;;;;;25.30;47.59;99588.94;5046914;28;20049;-57
2021/08/26 07:30:58;;;;;;;11.05;5.43;;;;;;;26.17;45.57;99597.25;5049170;28;20581;-54
2021/08/26 07:33:24;;;;;;;11.43;5.43;;;;;;;26.55;43.23;99599.09;5048267;28;20506;-58
2021/08/26 07:35:50;;;;;;;10.82;5.18;;;;;;;26.34;44.44;99598.41;5050390;28;20079;-50
2021/08/26 07:38:15;;;;;;;10.40;5.78;;;;;;;24.57;48.07;99589.88;5049504;28;20060;-58
2021/08/26 07:40:41;;;;;;;9.93;5.95;;;;;;;25.87;45.44;99607.03;4997250;28;20041;-56
2021/08/26 07:43:07;;;;;;;13.30;5.78;;;;;;;25.87;45.32;99596.31;5031163;28;20091;-63
2021/08/26 07:45:33;;;;;;;12.02;6.22;;;;;;;27.12;43.01;99598.22;5047279;28;20049;-58
2021/08/26 07:47:58;;;;;;;13.88;5.28;;;;;;;27.03;42.88;99614.34;5047568;28;20064;-56
2021/08/26 07:50:24;;;;;;;8.45;5.22;;;;;;;24.59;48.54;99620.00;5048661;28;20037;-54
2021/08/26 07:52:50;;;;;;;14.13;4.97;;;;;;;23.42;52.18;99601.00;5045862;28;20272;-58
2021/08/26 07:55:16;;;;;;;15.18;6.20;;;;;;;23.81;51.83;99606.84;5047393;28;20444;-60
2021/08/26 07:57:41;;;;;;;14.52;5.78;;;;;;;23.67;51.79;99573.22;5049709;28;20048;-57
2021/08/26 08:00:07;;;;;;;16.17;6.35;;;;;;;23.68;52.30;99618.50;5050085;28;20429;-55
2021/08/26 08:02:33;;;;;;;12.60;5.40;;;;;;;23.32;53.96;99618.72;5048452;28;20036;-64
2021/08/26 08:04:59;;;;;;;9.35;5.30;;;;;;;23.18;54.44;99616.28;5049581;28;20094;-55
2021/08/26 08:07:25;;;;;;;11.65;6.07;;;;;;;22.93;55.08;99593.31;5049371;28;20251;-58
2021/08/26 08:09:50;;;;;;;8.60;5.93;;;;;;;23.04;55.62;99612.88;5047746;28;20033;-55
2021/08/26 08:12:16;;;;;;;11.73;6.18;;;;;;;22.78;56.04;99611.31;5049241;28;20461;-54
2021/08/26 08:14:43;;;;;;;10.82;6.20;;;;;;;23.03;55.80;99600.47;5047758;28;20041;-57
2021/08/26 08:17:10;;;;;;;18.15;7.25;;;;;;;22.96;56.00;99598.41;5014753;28;20092;-54
2021/08/26 08:19:35;;;;;;;10.45;6.18;;;;;;;23.12;55.90;99605.13;5031014;28;20049;-54
2021/08/26 08:22:01;;;;;;;11.45;6.28;;;;;;;22.52;56.97;99605.31;5048950;28;20673;-55
2021/08/26 08:24:52;;;;;;;10.25;6.50;;;;;;;21.69;59.82;99605.19;5049250;28;20639;-55
2021/08/26 08:27:17;;;;;;;9.88;6.72;;;;;;;21.63;60.63;99616.28;5049657;28;20076;-55
2021/08/26 08:29:43;;;;;;;6.90;6.18;;;;;;;21.42;61.67;99623.13;5049789;28;20048;-55
2021/08/26 08:32:09;;;;;;;13.13;6.80;;;;;;;21.39;61.62;99607.38;5049728;28;20040;-51
2021/08/26 08:34:35;;;;;;;14.32;6.97;;;;;;;21.27;62.27;99629.50;5049227;28;20089;-55
2021/08/26 08:37:02;;;;;;;11.13;6.85;;;;;;;21.15;62.62;99625.88;5049358;28;20057;-58
2021/08/26 08:39:28;;;;;;;11.80;6.78;;;;;;;21.20;62.36;99621.94;5049583;28;20071;-53
2021/08/26 08:41:53;;;;;;;10.15;6.75;;;;;;;21.35;62.27;99605.88;5048271;28;20065;-57
2021/08/26 08:44:19;;;;;;;20.02;7.20;;;;;;;21.41;62.40;99621.41;5049589;28;20037;-52
2021/08/26 08:46:48;;;;;;;14.85;7.05;;;;;;;21.02;63.25;99625.88;5049165;28;20060;-55
2021/08/26 08:49:18;;;;;;;13.52;7.00;;;;;;;20.63;65.12;99640.06;5015032;28;20044;-54
2021/08/26 08:51:43;;;;;;;15.40;7.07;;;;;;;20.45;66.71;99642.13;4999774;28;20494;-56
2021/08/26 08:54:09;;;;;;;11.93;6.82;;;;;;;20.36;66.85;99632.09;5051958;28;20291;-56
2021/08/26 08:56:35;;;;;;;8.75;6.95;;;;;;;20.43;66.96;99630.75;5051976;28;20041;-51
2021/08/26 08:59:00;;;;;;;9.27;7.35;;;;;;;20.47;66.65;99620.78;5052991;28;20049;-57
2021/08/26 09:01:26;;;;;;;11.52;7.45;;;;;;;20.66;66.01;99634.53;5053067;28;20130;-54
2021/08/26 09:03:52;;;;;;;11.43;7.45;;;;;;;20.70;66.89;99619.22;5002171;28;20418;-56
2021/08/26 09:06:18;;;;;;;11.75;7.70;;;;;;;20.93;67.00;99632.69;5053051;28;20048;-58
2021/08/26 09:09:01;;;;;;;11.77;8.10;;;;;;;21.04;68.25;99650.56;5053769;28;20037;-56
2021/08/26 09:11:27;;;;;;;15.05;7.88;;;;;;;20.81;68.38;99649.47;5002405;28;20045;-59
2021/08/26 09:13:53;;;;;;;13.07;7.55;;;;;;;20.79;68.67;99647.84;5052907;28;20528;-56
2021/08/26 09:16:35;;;;;;;12.77;8.13;;;;;;;20.68;68.49;99645.91;5053529;28;20040;-57
2021/08/26 09:19:16;;;;;;;11.93;8.07;;;;;;;20.38;68.86;99651.44;5051887;28;20579;-57
2021/08/26 09:21:42;;;;;;;11.23;9.40;;;;;;;19.92;70.34;99633.16;5018849;28;20337;-55
2021/08/26 09:24:08;;;;;;;10.77;8.45;;;;;;;19.74;70.72;99629.03;5051797;28;20072;-58
2021/08/26 09:26:33;;;;;;;20.48;9.60;;;;;;;20.00;71.13;99635.31;5053007;28;20061;-57
2021/08/26 09:29:01;;;;;;;10.90;9.15;;;;;;;19.97;71.59;99647.00;5051995;28;20094;-60
2021/08/26 09:31:28;;;;;;;13.07;9.93;;;;;;;19.92;72.04;99627.84;5018720;28;20167;-61
2021/08/26 09:34:02;;;;;;;16.50;9.55;;;;;;;20.09;71.73;99650.69;5035381;28;20117;-58
2021/08/26 09:36:37;;;;;;;11.48;9.52;;;;;;;20.15;72.36;99647.63;5053378;28;20133;-58
2021/08/26 09:39:06;;;;;;;13.93;10.00;;;;;;;20.31;71.90;99658.94;5052564;28;20052;-58
2021/08/26 09:41:50;;;;;;;18.08;11.40;;;;;;;20.67;71.70;99659.31;5034089;28;20579;-59
2021/08/26 09:44:36;;;;;;;15.13;10.52;;;;;;;20.90;71.06;99655.97;5052158;28;20414;-58
2021/08/26 09:47:06;;;;;;;15.10;10.52;;;;;;;20.85;70.69;99650.13;5002581;28;20044;-55
2021/08/26 09:49:40;;;;;;;14.15;10.32;;;;;;;20.81;70.27;99635.31;5051097;28;20112;-54
2021/08/26 09:52:15;;;;;;;15.80;10.18;;;;;;;20.78;70.43;99656.75;5034948;28;20080;-57
2021/08/26 09:54:46;;;;;;;12.45;9.68;;;;;;;20.75;71.07;99652.50;5035153;28;20053;-57
2021/08/26 09:57:24;;;;;;;13.32;9.68;;;;;;;20.78;69.89;99654.97;5051310;28;20033;-55
2021/08/26 09:59:52;;;;;;;14.73;9.45;;;;;;;20.48;70.94;99641.94;5051028;28;20049;-56
2021/08/26 10:02:19;;;;;;;14.25;10.07;;;;;;;20.76;71.99;99651.56;5001402;28;20040;-57
2021/08/26 10:04:46;;;;;;;13.93;10.02;;;;;;;20.87;71.52;99658.84;5001230;28;20037;-58
2021/08/26 10:07:12;;;;;;;10.57;9.35;;;;;;;20.95;70.03;99645.88;5017686;28;20464;-56
2021/08/26 10:09:40;;;;;;;13.63;10.45;;;;;;;21.14;70.29;99651.63;5050998;28;20044;-59
2021/08/26 10:12:08;;;;;;;11.93;10.35;;;;;;;21.19;68.21;99662.78;5051390;28;20458;-58
2021/08/26 10:14:34;;;;;;;10.93;9.68;;;;;;;21.13;68.49;99647.25;5017133;28;20521;-56
2021/08/26 10:17:01;;;;;;;11.48;10.23;;;;;;;21.39;68.47;99652.59;5017713;28;20045;-57
2021/08/26 10:19:28;;;;;;;17.20;11.35;;;;;;;21.39;67.78;99649.94;5018080;28;20085;-53
2021/08/26 10:21:54;;;;;;;13.55;10.88;;;;;;;21.40;68.39;99641.84;5001733;28;20047;-56
2021/08/26 10:24:21;;;;;;;13.57;11.15;;;;;;;21.36;67.77;99648.34;5034207;28;20293;-52
2021/08/26 10:26:51;;;;;;;11.65;10.55;;;;;;;21.87;66.82;99646.47;5017413;28;20139;-57
2021/08/26 10:29:17;;;;;;;13.68;10.50;;;;;;;22.11;66.05;99649.19;5001224;28;20414;-55
2021/08/26 10:31:54;;;;;;;14.20;10.55;;;;;;;21.98;66.35;99652.81;5017465;28;20494;-61
2021/08/26 10:34:23;;;;;;;25.38;11.75;;;;;;;21.85;67.33;99652.88;5052212;28;20052;-60
2021/08/26 10:36:55;;;;;;;38.45;12.85;;;;;;;21.80;67.38;99655.00;5050750;28;20049;-58
2021/08/26 10:39:35;;;;;;;14.05;11.80;;;;;;;21.78;68.42;99655.13;5033898;28;20084;-63
2021/08/26 10:42:20;;;;;;;16.65;11.95;;;;;;;21.80;68.29;99655.00;5052353;28;20041;-53
2021/08/26 10:45:05;;;;;;;17.08;11.73;;;;;;;21.67;67.92;99648.88;5051820;28;20094;-56
2021/08/26 10:47:49;;;;;;;13.18;11.55;;;;;;;21.74;67.20;99655.44;5051755;28;20466;-56
2021/08/26 10:50:18;;;;;;;12.60;11.20;;;;;;;21.85;67.80;99656.38;5051946;28;20047;-57
2021/08/26 10:52:53;;;;;;;14.02;12.40;;;;;;;22.05;67.17;99652.31;5028656;28;20028;-58
